Time;durP1;ratioP1;P1;durP2;ratioP2;P2;SDS_P1;SDS_P2;PMS_P1;PMS_P2;Temp;Humidity;BMP_temperature;BMP_pressure;BME280_temperature;BME280_humidity;BME280_pressure;Samples;Min_cycle;Max_cycle;Signal;HPM_P1;HPM_P2
2023/09/30 00:00:01;;;;;;;10.80;6.03;;;17.70;99.90;;;;;;4996860;28;20045;-73
2023/09/30 00:02:27;;;;;;;12.07;5.97;;;17.70;99.90;;;;;;4996885;28;20047;-70
2023/09/30 00:04:53;;;;;;;9.10;6.47;;;17.70;99.90;;;;;;4995458;28;20407;-66
2023/09/30 00:07:19;;;;;;;8.73;5.82;;;17.70;99.90;;;;;;4996362;28;20034;-65
2023/09/30 00:09:45;;;;;;;10.40;5.75;;;17.60;99.90;;;;;;5001148;28;20379;-66
2023/09/30 00:12:11;;;;;;;7.00;5.85;;;17.60;99.90;;;;;;5015097;28;20117;-64
2023/09/30 00:14:37;;;;;;;7.03;5.43;;;17.50;99.90;;;;;;5014780;28;20026;-65
2023/09/30 00:17:03;;;;;;;8.18;5.43;;;17.60;99.90;;;;;;5013782;28;20030;-68
2023/09/30 00:19:28;;;;;;;9.20;5.30;;;17.50;99.90;;;;;;5015043;28;20509;-65
2023/09/30 00:21:54;;;;;;;8.73;5.70;;;17.50;99.90;;;;;;5001232;28;20034;-65
2023/09/30 00:24:20;;;;;;;11.38;5.90;;;17.50;99.90;;;;;;4995886;28;20027;-65
2023/09/30 00:26:46;;;;;;;7.25;6.10;;;17.50;99.90;;;;;;5014831;28;20059;-65
2023/09/30 00:29:11;;;;;;;8.82;6.45;;;17.50;99.90;;;;;;5013275;28;20028;-65
2023/09/30 00:31:37;;;;;;;9.50;5.90;;;17.50;99.90;;;;;;5012699;28;20109;-65
2023/09/30 00:34:02;;;;;;;10.00;6.10;;;17.50;99.90;;;;;;5013617;28;20084;-68
2023/09/30 00:36:28;;;;;;;10.90;6.18;;;17.50;99.90;;;;;;5013528;28;20045;-68
2023/09/30 00:38:54;;;;;;;10.50;6.25;;;17.40;99.90;;;;;;5013311;28;20026;-66
2023/09/30 00:41:19;;;;;;;8.35;6.28;;;17.40;99.90;;;;;;5014581;28;20491;-65
2023/09/30 00:43:48;;;;;;;7.57;5.65;;;17.40;99.90;;;;;;5014730;28;20467;-65
2023/09/30 00:46:26;;;;;;;9.25;6.80;;;17.40;99.90;;;;;;5014497;28;20030;-67
2023/09/30 00:48:54;;;;;;;10.80;6.95;;;17.40;99.90;;;;;;5014844;28;20037;-65
2023/09/30 00:51:20;;;;;;;10.20;6.25;;;17.30;99.90;;;;;;5013950;28;20036;-66
2023/09/30 00:53:46;;;;;;;8.88;5.90;;;17.40;99.90;;;;;;5014089;28;20022;-66
2023/09/30 00:56:12;;;;;;;8.98;5.63;;;17.30;99.90;;;;;;5014332;28;20037;-66
2023/09/30 00:58:38;;;;;;;9.18;6.05;;;17.30;99.90;;;;;;5014623;28;20033;-68
2023/09/30 01:01:04;;;;;;;8.77;6.45;;;17.30;99.90;;;;;;5014089;28;20025;-71
2023/09/30 01:03:30;;;;;;;12.82;6.53;;;17.30;99.90;;;;;;5014414;28;20022;-67
2023/09/30 01:05:56;;;;;;;10.40;6.10;;;17.30;99.90;;;;;;5013838;28;20040;-67
2023/09/30 01:08:22;;;;;;;11.25;6.30;;;17.20;99.90;;;;;;5014427;28;20030;-67
2023/09/30 01:10:48;;;;;;;10.10;6.03;;;17.20;99.90;;;;;;5013941;28;20119;-67
2023/09/30 01:13:14;;;;;;;13.05;6.82;;;17.20;99.90;;;;;;5013992;28;20022;-67
2023/09/30 01:15:39;;;;;;;9.18;5.80;;;17.20;99.90;;;;;;5013873;28;20034;-66
2023/09/30 01:18:05;;;;;;;10.40;5.97;;;17.20;99.90;;;;;;5014221;28;20113;-66
2023/09/30 01:20:31;;;;;;;9.77;6.18;;;17.20;99.90;;;;;;5013978;28;20522;-68
2023/09/30 01:22:57;;;;;;;12.48;6.68;;;17.10;99.90;;;;;;5014160;28;20073;-66
2023/09/30 01:25:24;;;;;;;11.88;6.07;;;17.20;99.90;;;;;;5013953;28;20033;-66
2023/09/30 01:27:54;;;;;;;11.55;6.10;;;17.10;99.90;;;;;;5013930;28;20100;-66
2023/09/30 01:30:19;;;;;;;9.23;6.10;;;17.10;99.90;;;;;;5013844;28;20089;-66
2023/09/30 01:32:45;;;;;;;8.48;6.47;;;17.10;99.90;;;;;;5013722;28;20563;-65
2023/09/30 01:35:11;;;;;;;9.73;6.45;;;17.10;99.90;;;;;;5013292;28;20058;-66
2023/09/30 01:37:36;;;;;;;8.27;5.93;;;17.10;99.90;;;;;;5013774;28;20212;-66
2023/09/30 01:40:11;;;;;;;11.10;6.82;;;17.10;99.90;;;;;;5013720;28;20387;-68
2023/09/30 01:42:37;;;;;;;12.23;6.80;;;17.10;99.90;;;;;;5013703;28;20029;-68
2023/09/30 01:45:03;;;;;;;11.65;5.90;;;17.00;99.90;;;;;;5013924;28;20022;-66
2023/09/30 01:47:29;;;;;;;9.40;6.20;;;17.00;99.90;;;;;;5013514;28;20032;-66
2023/09/30 01:49:54;;;;;;;9.93;6.43;;;17.00;99.90;;;;;;5013371;28;20033;-66
2023/09/30 01:52:20;;;;;;;12.25;5.90;;;17.00;99.90;;;;;;5013469;28;20073;-66
2023/09/30 01:54:45;;;;;;;11.00;6.07;;;17.00;99.90;;;;;;5013553;28;20025;-69
2023/09/30 01:57:11;;;;;;;11.20;6.60;;;17.00;99.90;;;;;;5013197;28;20471;-66
2023/09/30 01:59:37;;;;;;;11.07;6.55;;;16.90;99.90;;;;;;5013499;28;20435;-67
2023/09/30 02:02:02;;;;;;;9.93;6.53;;;16.90;99.90;;;;;;5013475;28;20026;-66
2023/09/30 02:04:29;;;;;;;9.73;6.45;;;16.90;99.90;;;;;;5012739;28;20026;-66
2023/09/30 02:06:55;;;;;;;11.02;6.60;;;16.90;99.90;;;;;;5013258;28;20085;-68
2023/09/30 02:09:20;;;;;;;11.07;6.72;;;16.80;99.90;;;;;;5005604;28;20034;-66
2023/09/30 02:11:46;;;;;;;13.38;7.10;;;16.90;99.90;;;;;;5013125;28;20029;-66
2023/09/30 02:14:11;;;;;;;13.05;6.22;;;16.80;99.90;;;;;;5010518;28;20101;-65
2023/09/30 02:16:38;;;;;;;14.85;6.57;;;16.80;99.90;;;;;;5012222;28;20034;-67
2023/09/30 02:19:04;;;;;;;9.57;6.20;;;16.90;99.90;;;;;;5012678;28;20476;-66
2023/09/30 02:21:30;;;;;;;14.00;6.57;;;16.80;99.90;;;;;;5013057;28;20030;-66
2023/09/30 02:23:55;;;;;;;11.55;6.70;;;16.80;99.90;;;;;;5013369;28;20475;-70
2023/09/30 02:26:22;;;;;;;10.80;6.80;;;16.80;99.90;;;;;;5013102;28;20018;-66
2023/09/30 02:28:48;;;;;;;9.68;6.97;;;16.80;99.90;;;;;;5013188;28;20018;-65
2023/09/30 02:31:13;;;;;;;12.88;6.30;;;16.80;99.90;;;;;;5013173;28;20041;-67
2023/09/30 02:33:39;;;;;;;11.85;6.80;;;16.80;99.90;;;;;;5013061;28;20072;-66
2023/09/30 02:36:08;;;;;;;11.35;6.10;;;16.80;99.90;;;;;;5013321;28;20483;-66
2023/09/30 02:38:37;;;;;;;11.27;6.85;;;16.80;99.90;;;;;;5013202;28;20352;-66
2023/09/30 02:41:03;;;;;;;11.25;7.03;;;16.80;99.90;;;;;;5013114;28;20033;-66
2023/09/30 02:43:29;;;;;;;10.55;7.05;;;16.80;99.90;;;;;;5012901;28;20021;-70
2023/09/30 02:45:54;;;;;;;11.63;7.53;;;16.80;99.90;;;;;;5013643;28;20383;-66
2023/09/30 02:48:20;;;;;;;10.55;6.72;;;16.80;99.90;;;;;;5012580;28;20364;-66
2023/09/30 02:50:46;;;;;;;9.75;6.72;;;16.80;99.90;;;;;;5013153;28;20026;-74
2023/09/30 02:53:13;;;;;;;13.27;7.10;;;16.80;99.90;;;;;;5012860;28;20109;-73
2023/09/30 02:55:42;;;;;;;13.02;7.47;;;16.80;99.90;;;;;;5012913;28;20109;-68
2023/09/30 02:58:08;;;;;;;11.45;6.72;;;16.70;99.90;;;;;;5013021;28;20033;-72
2023/09/30 03:00:35;;;;;;;18.38;8.18;;;16.70;99.90;;;;;;5013091;28;20124;-68
2023/09/30 03:03:01;;;;;;;10.32;6.93;;;16.70;99.90;;;;;;5012590;28;20072;-74
2023/09/30 03:05:30;;;;;;;11.40;7.65;;;16.80;99.90;;;;;;5012809;28;20060;-66
2023/09/30 03:07:56;;;;;;;13.60;7.68;;;16.70;99.90;;;;;;5012974;28;20022;-65
2023/09/30 03:10:23;;;;;;;14.02;6.97;;;16.80;99.90;;;;;;5012625;28;20460;-68
2023/09/30 03:12:53;;;;;;;15.77;7.97;;;16.70;99.90;;;;;;5013031;28;20022;-66
2023/09/30 03:15:18;;;;;;;14.32;6.72;;;16.80;99.90;;;;;;5013273;28;20034;-66
2023/09/30 03:17:44;;;;;;;13.88;7.32;;;16.70;99.90;;;;;;5016207;28;20156;-66
2023/09/30 03:20:14;;;;;;;10.43;6.80;;;16.70;99.90;;;;;;5016150;28;20087;-67
2023/09/30 03:22:42;;;;;;;11.40;7.63;;;16.70;99.90;;;;;;5016233;28;20123;-65
2023/09/30 03:25:11;;;;;;;14.32;6.95;;;16.60;99.90;;;;;;5016426;28;20156;-66
2023/09/30 03:27:38;;;;;;;12.35;7.03;;;16.60;99.90;;;;;;5016309;28;20057;-66
2023/09/30 03:30:05;;;;;;;12.15;7.30;;;16.60;99.90;;;;;;5015862;28;20028;-66
2023/09/30 03:32:33;;;;;;;13.05;8.43;;;16.60;99.90;;;;;;5015908;28;20054;-66
2023/09/30 03:35:00;;;;;;;14.98;7.82;;;16.70;99.90;;;;;;5015961;28;20034;-66
2023/09/30 03:37:27;;;;;;;14.25;7.82;;;16.70;99.90;;;;;;5015987;28;20480;-66
2023/09/30 03:39:55;;;;;;;11.93;7.55;;;16.60;99.90;;;;;;5015957;28;20022;-66
2023/09/30 03:42:21;;;;;;;13.82;7.47;;;16.70;99.90;;;;;;5015967;28;20033;-66
2023/09/30 03:44:48;;;;;;;15.77;8.43;;;16.60;99.90;;;;;;5016006;28;20030;-68
2023/09/30 03:47:15;;;;;;;12.98;8.05;;;16.60;99.90;;;;;;5015477;28;20034;-73
2023/09/30 03:49:42;;;;;;;15.98;9.02;;;16.60;99.90;;;;;;5015608;28;20026;-67
2023/09/30 03:52:08;;;;;;;16.00;8.80;;;16.60;99.90;;;;;;5015568;28;20050;-66
2023/09/30 03:54:35;;;;;;;13.88;8.52;;;16.50;99.90;;;;;;5015616;28;20092;-66
2023/09/30 03:57:00;;;;;;;11.65;8.80;;;16.50;99.90;;;;;;5015516;28;20493;-66
2023/09/30 03:59:27;;;;;;;13.35;8.63;;;16.40;99.90;;;;;;5015374;28;20031;-66
2023/09/30 04:01:53;;;;;;;16.70;10.40;;;16.50;99.90;;;;;;5015329;28;20030;-66
2023/09/30 04:04:21;;;;;;;14.68;9.07;;;16.40;99.90;;;;;;5015216;28;20125;-66
2023/09/30 04:06:47;;;;;;;15.55;10.15;;;16.40;99.90;;;;;;5015705;28;20054;-66
2023/09/30 04:09:16;;;;;;;17.98;9.63;;;16.40;99.90;;;;;;5015581;28;20356;-66
2023/09/30 04:11:42;;;;;;;15.10;10.18;;;16.40;99.90;;;;;;5015272;28;20026;-67
2023/09/30 04:14:09;;;;;;;15.00;9.60;;;16.40;99.90;;;;;;5015198;28;20538;-67
2023/09/30 04:16:37;;;;;;;12.88;9.68;;;16.40;99.90;;;;;;5015081;28;20069;-66
2023/09/30 04:19:03;;;;;;;16.67;9.75;;;16.30;99.90;;;;;;5015137;28;20018;-66
2023/09/30 04:21:32;;;;;;;14.70;10.57;;;16.30;99.90;;;;;;5014936;28;20034;-66
2023/09/30 04:23:57;;;;;;;15.82;10.75;;;16.30;99.90;;;;;;5015109;28;20018;-66
2023/09/30 04:26:23;;;;;;;16.00;11.75;;;16.20;99.90;;;;;;5014873;28;20053;-67
2023/09/30 04:28:49;;;;;;;17.25;10.43;;;16.30;99.90;;;;;;5014769;28;20026;-66
2023/09/30 04:31:15;;;;;;;16.27;10.38;;;16.20;99.90;;;;;;5014676;28;20486;-66
2023/09/30 04:33:41;;;;;;;19.63;11.02;;;16.20;99.90;;;;;;5014964;28;20018;-67
2023/09/30 04:36:09;;;;;;;30.20;22.80;;;16.20;99.90;;;;;;5014911;28;20038;-67
2023/09/30 04:38:37;;;;;;;19.20;12.07;;;16.20;99.90;;;;;;5013800;28;20033;-65
2023/09/30 04:41:03;;;;;;;16.77;10.90;;;16.20;99.90;;;;;;5008627;28;20061;-66
2023/09/30 04:43:29;;;;;;;14.52;10.48;;;16.20;99.90;;;;;;4994716;28;20169;-67
2023/09/30 04:45:56;;;;;;;13.93;10.50;;;16.20;99.90;;;;;;5006545;28;20025;-67
2023/09/30 04:48:23;;;;;;;16.90;11.55;;;16.20;99.90;;;;;;5007447;28;20026;-65
2023/09/30 04:50:51;;;;;;;17.40;11.77;;;16.20;99.90;;;;;;5008783;28;20424;-65
2023/09/30 04:53:17;;;;;;;18.63;11.90;;;16.10;99.90;;;;;;5014671;28;20022;-68
2023/09/30 04:55:44;;;;;;;15.82;11.65;;;16.20;99.90;;;;;;5014234;28;20034;-65
2023/09/30 04:58:10;;;;;;;19.92;11.25;;;16.20;99.90;;;;;;4999305;28;20030;-66
2023/09/30 05:00:36;;;;;;;17.85;11.77;;;16.10;99.90;;;;;;4998095;28;20093;-66
2023/09/30 05:03:02;;;;;;;19.58;11.60;;;16.10;99.90;;;;;;5013983;28;20026;-64
2023/09/30 05:05:28;;;;;;;19.60;11.73;;;16.10;99.90;;;;;;4999947;28;20061;-66
2023/09/30 05:07:54;;;;;;;20.05;12.50;;;16.10;99.90;;;;;;5012150;28;20026;-66
2023/09/30 05:10:20;;;;;;;18.20;11.52;;;16.20;99.90;;;;;;5013993;28;20057;-66
2023/09/30 05:12:46;;;;;;;20.65;12.85;;;16.10;99.90;;;;;;5001684;28;20056;-66
2023/09/30 05:15:15;;;;;;;18.10;12.63;;;16.10;99.90;;;;;;4997781;28;20019;-65
2023/09/30 05:17:45;;;;;;;26.60;13.30;;;16.10;99.90;;;;;;5010164;28;20073;-65
2023/09/30 05:20:12;;;;;;;19.92;13.30;;;16.10;99.90;;;;;;5014179;28;20101;-67
2023/09/30 05:22:45;;;;;;;22.92;14.13;;;16.10;99.90;;;;;;5012905;28;20388;-65
2023/09/30 05:25:11;;;;;;;18.60;13.43;;;16.10;99.90;;;;;;5013963;28;20025;-65
2023/09/30 05:27:37;;;;;;;22.08;14.40;;;16.00;99.90;;;;;;5013451;28;20057;-66
2023/09/30 05:30:07;;;;;;;25.00;13.90;;;16.10;99.90;;;;;;5014162;28;20053;-68
2023/09/30 05:32:34;;;;;;;24.83;14.90;;;16.10;99.90;;;;;;5012774;28;20029;-67
2023/09/30 05:35:02;;;;;;;24.92;13.85;;;16.00;99.90;;;;;;5013761;28;20057;-67
2023/09/30 05:37:28;;;;;;;22.35;15.02;;;16.10;99.90;;;;;;5013590;28;20042;-66
2023/09/30 05:39:54;;;;;;;20.08;13.95;;;16.00;99.90;;;;;;4999136;28;20068;-64
2023/09/30 05:42:19;;;;;;;20.75;14.38;;;16.00;99.90;;;;;;5003867;28;20049;-66
2023/09/30 05:44:45;;;;;;;21.85;14.43;;;16.00;99.90;;;;;;4994293;28;20464;-66
2023/09/30 05:47:12;;;;;;;22.33;15.18;;;16.00;99.90;;;;;;4993455;28;20022;-66
2023/09/30 05:49:37;;;;;;;25.80;16.10;;;16.00;99.90;;;;;;5013823;28;20025;-66
2023/09/30 05:52:03;;;;;;;20.23;15.40;;;16.00;99.90;;;;;;5013407;28;20029;-66
2023/09/30 05:54:30;;;;;;;24.08;15.80;;;16.00;99.90;;;;;;5004807;28;20058;-67
2023/09/30 05:56:56;;;;;;;23.15;14.80;;;16.00;99.90;;;;;;4993539;28;20093;-67
2023/09/30 05:59:21;;;;;;;19.58;14.68;;;16.00;99.90;;;;;;5002323;28;20487;-66
2023/09/30 06:01:47;;;;;;;29.38;16.25;;;16.00;99.90;;;;;;5010482;28;20037;-66
2023/09/30 06:04:13;;;;;;;23.88;15.68;;;15.90;99.90;;;;;;5000659;28;20026;-67
2023/09/30 06:06:38;;;;;;;22.73;15.95;;;16.00;99.90;;;;;;5013452;28;20042;-67
2023/09/30 06:09:07;;;;;;;24.17;15.18;;;16.00;99.90;;;;;;5006730;28;20467;-68
2023/09/30 06:11:33;;;;;;;27.63;16.05;;;16.00;99.90;;;;;;5000347;28;20431;-66
2023/09/30 06:14:00;;;;;;;21.67;13.90;;;15.90;99.90;;;;;;4998298;28;20479;-64
2023/09/30 06:16:27;;;;;;;22.65;14.18;;;16.00;99.90;;;;;;4999016;28;20125;-62
2023/09/30 06:18:55;;;;;;;16.25;10.07;;;16.20;99.90;;;;;;5011422;28;20018;-65
2023/09/30 06:21:21;;;;;;;11.27;7.28;;;16.40;99.90;;;;;;4997627;28;20427;-64
2023/09/30 06:23:48;;;;;;;19.23;12.07;;;16.50;99.90;;;;;;5005317;28;20034;-64
2023/09/30 06:26:16;;;;;;;19.58;11.52;;;16.60;99.90;;;;;;4998184;28;20068;-64
2023/09/30 06:28:42;;;;;;;13.77;7.90;;;16.60;99.90;;;;;;4999215;28;20011;-65
2023/09/30 06:31:08;;;;;;;12.27;8.30;;;16.70;99.90;;;;;;4991747;28;20546;-64
2023/09/30 06:33:39;;;;;;;21.65;13.48;;;16.70;99.90;;;;;;4993237;28;20011;-64
2023/09/30 06:36:09;;;;;;;19.30;11.30;;;16.70;99.90;;;;;;5000266;28;20034;-64
2023/09/30 06:38:36;;;;;;;20.58;12.50;;;16.70;99.90;;;;;;4996218;28;20030;-65
2023/09/30 06:41:02;;;;;;;18.20;12.23;;;16.80;99.90;;;;;;5008556;28;20065;-66
2023/09/30 06:43:28;;;;;;;19.73;12.07;;;16.80;99.90;;;;;;5010999;28;20026;-65
2023/09/30 06:45:54;;;;;;;12.00;8.13;;;16.80;99.90;;;;;;5003870;28;20062;-65
2023/09/30 06:48:21;;;;;;;12.20;7.40;;;16.80;99.90;;;;;;5009199;28;20430;-64
2023/09/30 06:50:48;;;;;;;15.50;8.85;;;16.80;99.90;;;;;;5007760;28;20399;-74
2023/09/30 06:53:15;;;;;;;12.00;7.13;;;16.90;99.90;;;;;;5008197;28;20041;-64
2023/09/30 06:55:43;;;;;;;12.32;6.68;;;16.80;99.90;;;;;;5008276;28;20368;-69
2023/09/30 06:58:10;;;;;;;12.43;7.65;;;16.90;99.90;;;;;;5004813;28;20030;-66
2023/09/30 07:00:42;;;;;;;17.73;10.65;;;16.90;99.90;;;;;;5002369;28;20152;-67
2023/09/30 07:03:09;;;;;;;17.88;10.30;;;16.90;99.90;;;;;;5009108;28;20022;-65
2023/09/30 07:05:36;;;;;;;17.00;13.38;;;16.90;99.90;;;;;;5006346;28;20041;-66
2023/09/30 07:08:01;;;;;;;18.45;12.63;;;16.90;99.90;;;;;;5009740;28;20088;-64
2023/09/30 07:10:29;;;;;;;23.45;14.63;;;16.90;99.90;;;;;;5008665;28;20056;-65
2023/09/30 07:12:55;;;;;;;21.58;14.07;;;16.90;99.90;;;;;;5011088;28;20387;-65
2023/09/30 07:15:20;;;;;;;23.23;13.80;;;16.90;99.90;;;;;;5000445;28;20030;-65
2023/09/30 07:17:47;;;;;;;20.85;15.30;;;16.80;99.90;;;;;;5015293;28;20037;-64
2023/09/30 07:20:14;;;;;;;25.17;15.00;;;16.80;99.90;;;;;;5008426;28;20018;-67
2023/09/30 07:22:40;;;;;;;23.02;13.80;;;16.80;99.90;;;;;;5000722;28;20108;-66
2023/09/30 07:25:06;;;;;;;25.55;15.38;;;16.80;99.90;;;;;;5010427;28;20109;-66
2023/09/30 07:27:32;;;;;;;27.27;14.50;;;16.70;99.90;;;;;;5011994;28;20032;-66
2023/09/30 07:29:57;;;;;;;23.65;12.32;;;17.00;99.90;;;;;;5006732;28;20034;-67
2023/09/30 07:32:23;;;;;;;29.75;14.80;;;17.10;99.90;;;;;;5007378;28;20060;-68
2023/09/30 07:34:52;;;;;;;24.60;13.63;;;17.30;99.90;;;;;;5020556;28;20540;-69
2023/09/30 07:37:18;;;;;;;24.25;13.82;;;17.40;99.90;;;;;;5023127;28;20038;-68
2023/09/30 07:39:44;;;;;;;27.83;15.63;;;17.40;99.90;;;;;;5015453;28;20026;-68
2023/09/30 07:42:10;;;;;;;27.65;17.17;;;17.50;99.90;;;;;;5006140;28;20057;-70
2023/09/30 07:44:37;;;;;;;24.88;13.48;;;17.50;99.90;;;;;;5015385;28;20399;-67
2023/09/30 07:47:03;;;;;;;21.67;11.65;;;17.40;99.90;;;;;;5012073;28;20065;-67
2023/09/30 07:49:29;;;;;;;20.77;14.88;;;17.40;99.90;;;;;;5014244;28;20051;-66
2023/09/30 07:51:55;;;;;;;27.88;17.33;;;17.40;99.90;;;;;;5011744;28;20030;-66
2023/09/30 07:54:21;;;;;;;27.80;16.05;;;17.40;99.90;;;;;;5015959;28;20033;-67
2023/09/30 07:56:46;;;;;;;29.88;16.48;;;17.40;99.90;;;;;;5012104;28;20403;-66
2023/09/30 07:59:13;;;;;;;26.50;16.85;;;17.40;99.90;;;;;;5004724;28;20026;-66
2023/09/30 08:01:39;;;;;;;27.13;17.10;;;17.40;99.90;;;;;;5005167;28;20030;-66
2023/09/30 08:04:04;;;;;;;24.85;16.45;;;17.40;99.90;;;;;;5008361;28;20036;-66
2023/09/30 08:06:31;;;;;;;30.42;16.75;;;17.30;99.90;;;;;;5006049;28;20759;-66
2023/09/30 08:08:56;;;;;;;30.08;18.52;;;17.30;99.90;;;;;;5012990;28;20089;-66
2023/09/30 08:11:22;;;;;;;29.52;17.70;;;17.30;99.90;;;;;;5003218;28;20049;-68
2023/09/30 08:13:48;;;;;;;26.98;15.88;;;17.30;99.90;;;;;;5008894;28;20026;-67
2023/09/30 08:16:16;;;;;;;27.10;17.33;;;17.30;99.90;;;;;;5003870;28;20129;-67
2023/09/30 08:18:41;;;;;;;26.00;17.23;;;17.30;99.90;;;;;;5009027;28;20578;-65
2023/09/30 08:21:11;;;;;;;25.85;17.85;;;17.30;99.90;;;;;;5002370;28;20100;-66
2023/09/30 08:23:38;;;;;;;23.00;14.63;;;17.40;99.90;;;;;;5013976;28;20025;-65
2023/09/30 08:26:05;;;;;;;26.05;17.50;;;17.40;99.90;;;;;;5011868;28;20022;-67
2023/09/30 08:28:31;;;;;;;25.08;16.60;;;17.40;99.90;;;;;;5024005;28;20337;-66
2023/09/30 08:31:03;;;;;;;25.95;17.85;;;17.40;99.90;;;;;;5013291;28;20500;-66
2023/09/30 08:33:30;;;;;;;28.00;17.98;;;17.40;99.90;;;;;;5008379;28;20479;-67
2023/09/30 08:35:58;;;;;;;28.17;17.73;;;17.40;99.90;;;;;;5005662;28;20030;-66
2023/09/30 08:38:24;;;;;;;27.00;16.30;;;17.40;99.90;;;;;;5016873;28;20511;-67
2023/09/30 08:40:52;;;;;;;24.40;15.80;;;17.40;99.90;;;;;;5031610;28;20028;-67
2023/09/30 08:43:23;;;;;;;23.88;16.00;;;17.50;99.90;;;;;;5010834;28;20030;-67
2023/09/30 08:45:53;;;;;;;21.23;14.30;;;17.40;99.90;;;;;;5010759;28;20349;-71
2023/09/30 08:48:20;;;;;;;19.58;14.18;;;17.50;99.90;;;;;;5008486;28;20475;-67
2023/09/30 08:50:49;;;;;;;28.45;14.73;;;17.50;99.90;;;;;;5013773;28;20048;-70
2023/09/30 08:53:16;;;;;;;23.05;14.63;;;17.50;99.90;;;;;;5010058;28;20068;-67
2023/09/30 08:55:45;;;;;;;25.00;14.10;;;17.50;99.90;;;;;;5006211;28;20037;-66
2023/09/30 08:58:12;;;;;;;19.85;12.50;;;17.50;99.90;;;;;;5012621;28;20579;-69
2023/09/30 09:00:42;;;;;;;21.77;13.52;;;17.60;99.90;;;;;;5006461;28;20026;-67
2023/09/30 09:03:08;;;;;;;24.10;13.18;;;17.60;99.90;;;;;;5012731;28;20026;-68
2023/09/30 09:05:34;;;;;;;28.42;12.40;;;17.70;99.90;;;;;;5012564;28;20084;-67
2023/09/30 09:08:00;;;;;;;25.13;12.02;;;17.70;99.90;;;;;;5011874;28;20034;-67
2023/09/30 09:10:25;;;;;;;23.05;12.23;;;17.70;99.90;;;;;;5011663;28;20101;-67
2023/09/30 09:12:59;;;;;;;22.55;12.20;;;17.70;99.90;;;;;;5016064;28;20147;-67
2023/09/30 09:15:28;;;;;;;23.27;11.77;;;17.70;99.90;;;;;;5015734;28;20049;-67
2023/09/30 09:17:55;;;;;;;20.85;11.40;;;17.70;99.90;;;;;;5012684;28;20183;-67
2023/09/30 09:20:22;;;;;;;23.45;11.02;;;17.80;99.90;;;;;;5010238;28;20045;-70
2023/09/30 09:22:55;;;;;;;19.55;10.48;;;17.80;99.90;;;;;;5004770;28;20031;-67
2023/09/30 09:25:22;;;;;;;22.58;11.45;;;17.80;99.90;;;;;;5008179;28;20017;-69
2023/09/30 09:27:50;;;;;;;22.13;11.15;;;17.90;99.90;;;;;;5007760;28;20030;-67
2023/09/30 09:30:25;;;;;;;18.35;8.48;;;17.80;99.90;;;;;;5013616;28;20475;-68
2023/09/30 09:33:11;;;;;;;12.73;7.82;;;17.90;99.90;;;;;;5010531;28;20026;-68
2023/09/30 09:35:37;;;;;;;22.13;9.05;;;17.90;99.90;;;;;;5016944;28;20061;-68
2023/09/30 09:38:07;;;;;;;21.48;8.75;;;17.90;99.90;;;;;;5011412;28;20018;-68
2023/09/30 09:40:40;;;;;;;22.33;9.60;;;17.90;99.90;;;;;;5010115;28;20041;-68
2023/09/30 09:43:06;;;;;;;16.70;7.40;;;17.90;99.90;;;;;;5009280;28;20014;-73
2023/09/30 09:45:37;;;;;;;24.00;9.43;;;17.90;99.90;;;;;;5011971;28;20135;-68
2023/09/30 09:48:04;;;;;;;20.48;8.07;;;17.90;99.90;;;;;;5006219;28;20028;-69
2023/09/30 09:50:32;;;;;;;20.67;8.35;;;17.90;99.90;;;;;;5000838;28;20036;-67
2023/09/30 09:53:00;;;;;;;21.63;8.18;;;18.00;99.90;;;;;;4996894;28;20117;-68
2023/09/30 09:55:27;;;;;;;17.80;7.60;;;18.00;99.90;;;;;;4996458;28;20631;-69
2023/09/30 09:57:54;;;;;;;21.80;8.27;;;18.00;99.90;;;;;;5006061;28;20051;-68
2023/09/30 10:00:23;;;;;;;18.30;9.05;;;18.10;99.90;;;;;;5001302;28;20041;-73
2023/09/30 10:02:50;;;;;;;18.67;7.95;;;18.10;99.90;;;;;;4998354;28;20113;-72
2023/09/30 10:05:17;;;;;;;17.95;8.25;;;18.10;99.90;;;;;;5000435;28;20030;-68
2023/09/30 10:07:56;;;;;;;17.48;8.07;;;18.10;99.90;;;;;;5012274;28;20026;-70
2023/09/30 10:10:24;;;;;;;19.80;7.68;;;18.20;99.90;;;;;;5005761;28;20037;-71
2023/09/30 10:12:50;;;;;;;17.38;7.85;;;18.20;99.90;;;;;;4992662;28;20050;-68
2023/09/30 10:15:25;;;;;;;21.00;8.85;;;18.20;99.90;;;;;;4993131;28;20487;-68
2023/09/30 10:18:11;;;;;;;17.02;7.93;;;18.20;99.90;;;;;;5001858;28;20109;-68
2023/09/30 10:20:41;;;;;;;21.20;7.13;;;18.20;99.90;;;;;;5006590;28;20014;-68
2023/09/30 10:23:35;;;;;;;21.73;7.07;;;18.30;99.90;;;;;;5011658;28;20077;-67
2023/09/30 10:26:13;;;;;;;16.83;7.50;;;18.30;99.90;;;;;;5011913;28;20040;-71
2023/09/30 10:28:49;;;;;;;16.48;6.40;;;18.30;99.90;;;;;;5009796;28;20073;-69
2023/09/30 10:31:26;;;;;;;16.67;6.32;;;18.30;99.90;;;;;;5014506;28;20485;-68
2023/09/30 10:34:01;;;;;;;18.25;6.32;;;18.30;99.90;;;;;;5021471;28;20034;-68
2023/09/30 10:36:32;;;;;;;16.42;6.28;;;18.30;99.90;;;;;;5007050;28;20077;-73
2023/09/30 10:38:57;;;;;;;16.08;5.93;;;18.40;99.90;;;;;;5010554;28;20034;-68
2023/09/30 10:44:25;;;;;;;17.08;5.28;;;18.40;99.90;;;;;;5008224;28;20031;-71
2023/09/30 10:46:52;;;;;;;13.98;5.30;;;18.40;99.90;;;;;;5014839;28;20030;-68
2023/09/30 10:49:33;;;;;;;15.68;5.60;;;18.50;99.90;;;;;;4999732;28;20376;-68
2023/09/30 10:52:00;;;;;;;16.70;5.60;;;18.50;99.90;;;;;;5000798;28;20030;-68
2023/09/30 10:54:31;;;;;;;17.67;5.47;;;18.50;99.90;;;;;;5005731;28;20022;-70
2023/09/30 10:57:03;;;;;;;18.88;5.93;;;18.50;99.90;;;;;;5006769;28;20029;-67
2023/09/30 10:59:34;;;;;;;12.85;6.18;;;18.50;99.90;;;;;;5015725;28;20525;-69
2023/09/30 11:02:00;;;;;;;12.55;4.97;;;18.60;99.90;;;;;;5004977;28;20034;-68
2023/09/30 11:04:29;;;;;;;12.40;4.30;;;18.60;99.90;;;;;;5010570;28;20034;-69
2023/09/30 11:06:55;;;;;;;14.32;5.55;;;18.60;99.90;;;;;;4997628;28;20116;-73
2023/09/30 11:09:23;;;;;;;17.13;5.15;;;18.60;99.90;;;;;;5010537;28;20058;-67
2023/09/30 11:11:51;;;;;;;18.25;4.20;;;18.60;99.90;;;;;;5001347;28;20083;-69
2023/09/30 11:14:27;;;;;;;15.40;4.72;;;18.60;99.90;;;;;;5008545;28;20033;-68
2023/09/30 11:16:55;;;;;;;12.95;4.35;;;18.70;99.90;;;;;;4999809;28;20046;-69
2023/09/30 11:19:22;;;;;;;13.40;3.92;;;18.70;99.90;;;;;;5011472;28;20022;-68
2023/09/30 11:21:52;;;;;;;15.18;4.00;;;18.80;99.90;;;;;;5012863;28;20042;-71
2023/09/30 11:24:18;;;;;;;16.17;4.70;;;18.70;99.90;;;;;;5005314;28;20156;-68
2023/09/30 11:26:45;;;;;;;17.17;5.07;;;18.80;99.90;;;;;;5011711;28;20510;-68
2023/09/30 11:29:12;;;;;;;12.43;4.03;;;18.80;99.90;;;;;;5006263;28;20495;-68
2023/09/30 11:31:43;;;;;;;14.48;4.50;;;18.80;99.90;;;;;;5015925;28;20014;-69
2023/09/30 11:34:11;;;;;;;12.10;4.15;;;18.80;99.90;;;;;;5013491;28;20026;-70
2023/09/30 11:36:40;;;;;;;10.77;4.07;;;18.90;99.90;;;;;;5015308;28;20050;-69
2023/09/30 11:39:09;;;;;;;11.13;4.15;;;18.90;99.90;;;;;;5012957;28;20533;-69
2023/09/30 11:41:39;;;;;;;14.65;4.32;;;18.90;99.90;;;;;;5009352;28;20037;-71
2023/09/30 11:44:14;;;;;;;12.07;3.70;;;18.90;99.90;;;;;;5001719;28;20025;-68
2023/09/30 11:47:04;;;;;;;10.57;3.65;;;18.90;99.90;;;;;;5000093;28;20109;-68
2023/09/30 11:49:38;;;;;;;11.57;3.60;;;19.00;99.90;;;;;;5005073;28;20058;-68
2023/09/30 11:52:07;;;;;;;14.25;3.70;;;19.00;99.90;;;;;;5003189;28;20093;-68
2023/09/30 11:54:34;;;;;;;12.73;3.65;;;19.00;99.90;;;;;;5006575;28;20034;-70
2023/09/30 11:57:01;;;;;;;10.98;4.03;;;18.90;99.90;;;;;;5011443;28;20125;-68
2023/09/30 11:59:27;;;;;;;10.65;3.55;;;19.00;99.90;;;;;;5005899;28;20026;-67
2023/09/30 12:01:54;;;;;;;9.75;3.40;;;19.00;99.90;;;;;;5012140;28;20479;-68
2023/09/30 12:04:20;;;;;;;12.55;3.70;;;19.00;99.90;;;;;;5008417;28;20379;-70
2023/09/30 12:06:49;;;;;;;10.02;3.50;;;19.00;99.90;;;;;;5013887;28;20038;-68
2023/09/30 12:09:22;;;;;;;10.38;3.30;;;19.00;99.90;;;;;;5015029;28;20157;-67
2023/09/30 12:11:49;;;;;;;10.27;3.17;;;19.00;99.90;;;;;;5013000;28;20481;-68
2023/09/30 12:14:15;;;;;;;10.50;3.05;;;19.00;99.90;;;;;;5008363;28;20138;-68
2023/09/30 12:16:41;;;;;;;8.65;2.60;;;19.10;99.90;;;;;;4996270;28;20042;-70
2023/09/30 12:19:08;;;;;;;12.15;3.50;;;19.00;99.90;;;;;;5003706;28;20460;-67
2023/09/30 12:21:34;;;;;;;10.23;3.25;;;19.10;99.90;;;;;;5000894;28;20042;-68
2023/09/30 12:24:01;;;;;;;9.80;3.00;;;19.10;99.90;;;;;;5009929;28;20018;-68
2023/09/30 12:26:27;;;;;;;14.02;3.65;;;19.10;99.90;;;;;;5014618;28;20113;-68
2023/09/30 12:28:53;;;;;;;8.77;3.22;;;19.10;99.90;;;;;;5008532;28;20058;-67
2023/09/30 12:31:20;;;;;;;8.50;3.35;;;19.10;99.90;;;;;;5002243;28;20038;-69
2023/09/30 12:33:50;;;;;;;10.32;3.00;;;19.20;99.90;;;;;;5011751;28;20534;-69
2023/09/30 12:36:16;;;;;;;14.38;4.03;;;19.20;99.90;;;;;;5007514;28;20076;-68